createdAt,value
2022-09-15T00:01:03.199Z,30.93
2022-09-15T00:03:30.172Z,23.00
2022-09-15T00:05:57.248Z,24.97
2022-09-15T00:08:24.732Z,19.23
2022-09-15T00:10:55.987Z,17.90
2022-09-15T00:13:23.642Z,22.50
2022-09-15T00:15:50.819Z,24.00
2022-09-15T00:18:18.000Z,31.13
2022-09-15T00:20:46.167Z,20.57
2022-09-15T00:23:14.998Z,22.37
2022-09-15T00:25:52.846Z,28.27
2022-09-15T00:28:21.737Z,26.37
2022-09-15T00:30:52.420Z,18.43
2022-09-15T00:33:21.012Z,18.83
2022-09-15T00:35:50.277Z,16.47
2022-09-15T00:38:18.251Z,24.63
2022-09-15T00:40:51.160Z,22.67
2022-09-15T00:43:20.332Z,18.17
2022-09-15T00:45:48.583Z,21.73
2022-09-15T00:48:20.865Z,17.73
2022-09-15T00:50:53.255Z,19.40
2022-09-15T00:53:20.859Z,18.13
2022-09-15T00:55:49.883Z,17.07
2022-09-15T00:58:25.890Z,18.90
2022-09-15T01:00:57.074Z,18.73
2022-09-15T01:03:26.093Z,17.73
2022-09-15T01:06:01.010Z,20.33
2022-09-15T01:08:46.874Z,18.83
2022-09-15T01:11:17.006Z,18.40
2022-09-15T01:13:44.527Z,18.23
2022-09-15T01:16:45.306Z,19.07
2022-09-15T01:19:40.384Z,19.80
2022-09-15T01:22:44.990Z,19.93
2022-09-15T01:25:26.306Z,21.50
2022-09-15T01:28:16.416Z,22.57
2022-09-15T01:30:53.342Z,20.57
2022-09-15T01:33:31.266Z,20.07
2022-09-15T01:36:10.603Z,19.47
2022-09-15T01:38:55.089Z,23.57
2022-09-15T01:41:33.330Z,22.23
2022-09-15T01:44:10.473Z,22.13
2022-09-15T01:46:47.065Z,22.80
2022-09-15T01:49:24.752Z,19.73
2022-09-15T01:51:53.592Z,21.87
2022-09-15T01:54:25.055Z,20.17
2022-09-15T01:56:52.265Z,21.40
2022-09-15T01:59:19.192Z,22.47
2022-09-15T02:02:03.941Z,15.77
2022-09-15T02:04:48.851Z,24.03
2022-09-15T02:07:26.970Z,21.33
2022-09-15T02:10:02.676Z,21.07
2022-09-15T02:12:39.616Z,20.60
2022-09-15T02:15:14.991Z,21.33
2022-09-15T02:17:46.492Z,23.30
2022-09-15T02:20:33.128Z,23.80
2022-09-15T02:23:08.187Z,22.50
2022-09-15T02:25:41.967Z,22.13
2022-09-15T02:28:11.684Z,23.80
2022-09-15T02:30:41.981Z,23.43
2022-09-15T02:33:14.467Z,23.93
2022-09-15T02:35:42.468Z,23.70
2022-09-15T02:38:10.583Z,26.23
2022-09-15T02:40:41.220Z,26.57
2022-09-15T02:43:14.114Z,25.43
2022-09-15T02:45:41.176Z,24.23
2022-09-15T02:48:09.709Z,25.00
2022-09-15T02:50:38.992Z,25.87
2022-09-15T02:53:06.033Z,28.30
2022-09-15T02:55:33.328Z,27.73
2022-09-15T02:58:00.320Z,27.87
2022-09-15T03:00:28.360Z,28.07
2022-09-15T03:02:56.143Z,29.10
2022-09-15T03:05:26.560Z,27.93
2022-09-15T03:07:54.161Z,28.90
2022-09-15T03:10:22.151Z,28.63
2022-09-15T03:12:51.275Z,24.80
2022-09-15T03:15:21.236Z,25.23
2022-09-15T03:17:48.806Z,18.67
2022-09-15T03:20:20.097Z,19.30
2022-09-15T03:22:47.829Z,23.27
2022-09-15T03:25:14.746Z,24.13
2022-09-15T03:27:42.392Z,21.50
2022-09-15T03:30:10.847Z,20.27
2022-09-15T03:32:38.023Z,17.23
2022-09-15T03:35:06.764Z,16.70
2022-09-15T03:37:33.924Z,22.10
2022-09-15T03:40:00.927Z,18.30
2022-09-15T03:42:27.859Z,18.90
2022-09-15T03:44:54.836Z,17.27
2022-09-15T03:47:21.713Z,16.67
2022-09-15T03:49:48.572Z,17.47
2022-09-15T03:52:15.457Z,16.13
2022-09-15T03:54:42.327Z,14.83
2022-09-15T03:57:09.275Z,17.17
2022-09-15T03:59:36.182Z,15.87
2022-09-15T04:02:03.186Z,13.73
2022-09-15T04:04:30.067Z,16.27
2022-09-15T04:06:56.969Z,26.17
2022-09-15T04:09:23.910Z,19.83
2022-09-15T04:11:50.793Z,28.67
2022-09-15T04:14:17.687Z,27.25
2022-09-15T04:16:44.618Z,19.05
2022-09-15T04:19:11.922Z,15.02
2022-09-15T04:21:38.793Z,15.73
2022-09-15T04:24:06.058Z,16.53
2022-09-15T04:26:35.715Z,18.25
2022-09-15T04:29:05.024Z,22.00
2022-09-15T04:31:33.293Z,26.20
2022-09-15T04:34:00.491Z,26.53
2022-09-15T04:36:28.833Z,19.60
2022-09-15T04:38:56.917Z,16.48
2022-09-15T04:41:25.480Z,17.65
2022-09-15T04:43:52.949Z,16.60
2022-09-15T04:46:20.694Z,21.77
2022-09-15T04:48:48.835Z,18.20
2022-09-15T04:51:19.302Z,19.50
2022-09-15T04:53:46.301Z,16.98
2022-09-15T04:56:19.121Z,20.67
2022-09-15T04:59:02.494Z,26.13
2022-09-15T05:01:32.875Z,26.95
2022-09-15T05:04:03.880Z,17.25
2022-09-15T05:06:31.003Z,26.90
2022-09-15T05:08:58.435Z,16.92
2022-09-15T05:11:26.425Z,24.47
2022-09-15T05:13:53.440Z,17.75
2022-09-15T05:16:26.134Z,16.52
2022-09-15T05:18:55.316Z,17.23
2022-09-15T05:21:23.436Z,19.33
2022-09-15T05:23:54.041Z,20.87
2022-09-15T05:26:24.313Z,17.97
2022-09-15T05:28:51.643Z,18.90
2022-09-15T05:31:27.224Z,17.80
2022-09-15T05:33:54.588Z,16.57
2022-09-15T05:36:25.197Z,18.67
2022-09-15T05:38:56.763Z,19.03
2022-09-15T05:41:24.916Z,22.23
2022-09-15T05:43:53.542Z,23.42
2022-09-15T05:46:20.728Z,18.40
2022-09-15T05:48:47.860Z,22.60
2022-09-15T05:51:15.211Z,19.83
2022-09-15T05:53:42.444Z,17.50
2022-09-15T05:56:14.264Z,15.90
2022-09-15T05:58:42.859Z,15.02
2022-09-15T06:01:14.149Z,14.23
2022-09-15T06:03:41.003Z,14.15
2022-09-15T06:06:08.077Z,14.00
2022-09-15T06:08:43.746Z,13.05
2022-09-15T06:11:15.625Z,12.25
2022-09-15T06:13:43.537Z,13.27
2022-09-15T06:16:17.280Z,13.55
2022-09-15T06:18:44.202Z,14.05
2022-09-15T06:21:14.023Z,12.85
2022-09-15T06:23:41.429Z,13.23
2022-09-15T06:26:17.772Z,13.07
2022-09-15T06:28:55.303Z,11.98
2022-09-15T06:31:22.931Z,13.02
2022-09-15T06:33:52.028Z,12.15
2022-09-15T06:36:21.055Z,12.55
2022-09-15T06:38:48.456Z,12.60
2022-09-15T06:41:16.163Z,11.38
2022-09-15T06:43:43.577Z,12.25
2022-09-15T06:46:15.242Z,11.25
2022-09-15T06:48:46.250Z,11.23
2022-09-15T06:51:17.076Z,10.63
2022-09-15T06:53:44.689Z,10.50
2022-09-15T06:56:14.739Z,10.55
2022-09-15T06:58:42.758Z,9.90
2022-09-15T07:01:12.570Z,9.73
2022-09-15T07:03:42.435Z,10.45
2022-09-15T07:06:12.170Z,12.05
2022-09-15T07:08:39.853Z,13.35
2022-09-15T07:11:07.947Z,11.63
2022-09-15T07:13:35.161Z,14.80
2022-09-15T07:16:04.343Z,11.73
2022-09-15T07:18:32.586Z,11.43
2022-09-15T07:21:11.580Z,10.10
2022-09-15T07:23:38.590Z,10.45
2022-09-15T07:26:11.501Z,11.52
2022-09-15T07:28:39.311Z,9.02
2022-09-15T07:31:07.701Z,7.93
2022-09-15T07:33:35.241Z,8.65
2022-09-15T07:36:03.972Z,15.00
2022-09-15T07:38:30.953Z,20.60
2022-09-15T07:41:11.764Z,16.40
2022-09-15T07:43:39.351Z,13.05
2022-09-15T07:46:07.036Z,10.25
2022-09-15T07:48:33.913Z,13.57
2022-09-15T07:51:00.868Z,12.45
2022-09-15T07:53:29.302Z,14.55
2022-09-15T07:55:56.847Z,17.65
2022-09-15T07:58:25.024Z,14.60
2022-09-15T08:00:52.107Z,16.00
2022-09-15T08:03:19.063Z,7.13
2022-09-15T08:05:46.319Z,6.70
2022-09-15T08:08:13.522Z,12.25
2022-09-15T08:10:41.296Z,13.80
2022-09-15T08:13:08.895Z,9.02
2022-09-15T08:15:37.746Z,10.93
2022-09-15T08:18:05.639Z,9.10
2022-09-15T08:20:33.236Z,9.27
2022-09-15T08:23:00.313Z,12.75
2022-09-15T08:25:27.333Z,9.48
2022-09-15T08:27:56.296Z,9.32
2022-09-15T08:30:23.679Z,9.73
2022-09-15T08:32:50.919Z,9.07
2022-09-15T08:35:18.813Z,9.23
2022-09-15T08:37:46.747Z,8.50
2022-09-15T08:40:20.870Z,7.22
2022-09-15T08:42:50.640Z,14.02
2022-09-15T08:45:24.626Z,8.30
2022-09-15T08:47:58.573Z,13.15
2022-09-15T08:50:35.356Z,11.90
2022-09-15T08:53:09.813Z,9.80
2022-09-15T08:56:09.367Z,9.82
2022-09-15T08:58:38.199Z,7.10
2022-09-15T09:01:11.363Z,6.47
2022-09-15T09:03:54.792Z,6.75
2022-09-15T09:06:45.098Z,5.65
2022-09-15T09:09:28.258Z,5.05
2022-09-15T09:12:06.720Z,4.68
2022-09-15T09:14:39.825Z,4.93
2022-09-15T09:17:49.521Z,4.70
2022-09-15T09:20:19.138Z,3.97
2022-09-15T09:22:49.940Z,3.60
2022-09-15T09:25:27.295Z,4.10
2022-09-15T09:27:58.481Z,3.65
2022-09-15T09:30:29.670Z,3.88
2022-09-15T09:33:27.029Z,4.18
2022-09-15T09:35:54.160Z,3.88
2022-09-15T09:38:34.910Z,3.20
2022-09-15T09:41:04.981Z,3.03
2022-09-15T09:43:32.824Z,2.50
2022-09-15T09:45:59.835Z,3.15
2022-09-15T09:48:27.589Z,2.53
2022-09-15T09:50:55.228Z,2.25
2022-09-15T09:53:33.834Z,2.50
2022-09-15T09:56:24.797Z,2.10
2022-09-15T09:58:52.599Z,5.13
2022-09-15T10:01:24.091Z,5.13
2022-09-15T10:04:19.267Z,5.35
2022-09-15T10:06:46.716Z,5.55
2022-09-15T10:09:17.276Z,4.53
2022-09-15T10:11:47.831Z,5.97
2022-09-15T10:14:35.185Z,4.38
2022-09-15T10:17:18.606Z,3.10
2022-09-15T10:20:32.576Z,3.80
2022-09-15T10:23:17.726Z,2.58
2022-09-15T10:25:58.566Z,2.30
2022-09-15T10:28:27.822Z,2.25
2022-09-15T10:30:57.400Z,2.30
2022-09-15T10:33:27.052Z,2.33
2022-09-15T10:35:59.361Z,1.85
2022-09-15T10:38:42.545Z,2.53
2022-09-15T10:41:21.493Z,2.00
2022-09-15T10:44:01.948Z,1.52
2022-09-15T10:46:39.434Z,1.40
2022-09-15T10:49:15.419Z,1.40
2022-09-15T10:52:12.153Z,1.33
2022-09-15T10:54:40.264Z,1.15
2022-09-15T11:00:09.334Z,1.20
2022-09-15T11:03:14.484Z,0.80
2022-09-15T11:05:59.201Z,1.42
2022-09-15T11:08:37.068Z,1.20
2022-09-15T11:11:22.048Z,2.10
2022-09-15T11:14:17.395Z,4.47
2022-09-15T11:16:55.993Z,4.07
2022-09-15T11:19:32.787Z,5.13
2022-09-15T11:22:12.375Z,4.13
2022-09-15T11:24:48.020Z,2.35
2022-09-15T11:27:53.957Z,5.47
2022-09-15T11:30:30.731Z,7.75
2022-09-15T11:33:06.900Z,10.80
2022-09-15T11:35:36.540Z,7.05
2022-09-15T11:38:34.437Z,6.85
2022-09-15T11:41:28.499Z,5.50
2022-09-15T11:44:07.658Z,3.42
2022-09-15T11:47:01.648Z,1.92
2022-09-15T11:49:51.133Z,1.92
2022-09-15T11:52:22.872Z,1.40
2022-09-15T11:54:56.158Z,2.08
2022-09-15T11:57:38.971Z,1.73
2022-09-15T12:00:12.162Z,1.60
2022-09-15T12:02:49.556Z,1.42
2022-09-15T12:05:39.773Z,1.17
2022-09-15T12:08:18.198Z,1.38
2022-09-15T12:10:54.557Z,1.45
2022-09-15T12:13:24.184Z,1.50
2022-09-15T12:15:52.566Z,1.52
2022-09-15T12:18:41.741Z,1.20
2022-09-15T12:21:46.081Z,1.00
2022-09-15T12:24:30.969Z,1.20
2022-09-15T12:27:00.808Z,1.05
2022-09-15T12:29:27.685Z,1.10
2022-09-15T12:32:30.944Z,1.45
2022-09-15T12:35:23.201Z,1.08
2022-09-15T12:38:00.481Z,1.40
2022-09-15T12:40:30.508Z,1.30
2022-09-15T12:42:57.728Z,1.52
2022-09-15T12:45:31.021Z,1.30
2022-09-15T12:48:03.817Z,1.63
2022-09-15T12:50:39.325Z,3.33
2022-09-15T12:53:47.641Z,5.30
2022-09-15T12:56:26.505Z,5.55
2022-09-15T12:58:54.211Z,5.95
2022-09-15T13:01:26.830Z,3.53
2022-09-15T13:03:55.223Z,3.70
2022-09-15T13:06:22.276Z,3.97
2022-09-15T13:08:50.658Z,3.15
2022-09-15T13:11:17.549Z,2.78
2022-09-15T13:14:08.622Z,2.00
2022-09-15T13:16:43.732Z,2.05
2022-09-15T13:19:14.279Z,1.90
2022-09-15T13:22:12.113Z,1.80
2022-09-15T13:24:47.920Z,1.70
2022-09-15T13:27:23.353Z,2.13
2022-09-15T13:30:02.745Z,1.60
2022-09-15T13:32:32.820Z,1.23
2022-09-15T13:35:18.661Z,1.33
2022-09-15T13:38:16.855Z,1.10
2022-09-15T13:41:18.439Z,1.80
2022-09-15T13:43:58.261Z,1.73
2022-09-15T13:46:46.550Z,1.35
2022-09-15T13:49:13.431Z,1.65
2022-09-15T13:51:43.285Z,1.40
2022-09-15T13:54:19.159Z,1.80
2022-09-15T13:56:53.159Z,1.75
2022-09-15T13:59:25.321Z,1.60
2022-09-15T14:01:55.355Z,5.65
2022-09-15T14:04:28.907Z,7.30
2022-09-15T14:07:00.919Z,5.25
2022-09-15T14:09:38.595Z,5.53
2022-09-15T14:12:12.061Z,3.70
2022-09-15T14:14:55.902Z,6.22
2022-09-15T14:17:28.708Z,3.97
2022-09-15T14:19:58.731Z,4.75
2022-09-15T14:22:31.917Z,3.13
2022-09-15T14:25:04.641Z,4.20
2022-09-15T14:27:34.083Z,3.40
2022-09-15T14:30:08.355Z,3.05
2022-09-15T14:32:39.036Z,2.38
2022-09-15T14:35:09.203Z,2.50
2022-09-15T14:37:36.397Z,2.30
2022-09-15T14:40:23.567Z,1.70
2022-09-15T14:42:50.839Z,1.90
2022-09-15T14:48:16.801Z,1.60
2022-09-15T14:50:46.424Z,1.60
2022-09-15T14:53:24.741Z,2.15
2022-09-15T14:56:08.335Z,2.17
2022-09-15T14:59:05.275Z,1.70
2022-09-15T15:01:42.839Z,1.63
2022-09-15T15:04:25.817Z,1.67
2022-09-15T15:07:01.840Z,1.30
2022-09-15T15:09:37.905Z,1.73
2022-09-15T15:12:18.029Z,1.40
2022-09-15T15:14:45.183Z,12.13
2022-09-15T15:17:25.199Z,10.93
2022-09-15T15:19:59.502Z,10.05
2022-09-15T15:22:27.107Z,8.00
2022-09-15T15:24:54.699Z,4.55
2022-09-15T15:27:33.708Z,3.13
2022-09-15T15:30:23.847Z,4.38
2022-09-15T15:32:50.845Z,2.80
2022-09-15T15:35:18.879Z,2.40
2022-09-15T15:37:47.251Z,2.22
2022-09-15T15:40:23.163Z,1.85
2022-09-15T15:43:03.542Z,1.95
2022-09-15T15:45:35.427Z,1.70
2022-09-15T15:48:03.961Z,1.42
2022-09-15T15:50:32.708Z,5.63
2022-09-15T15:53:00.897Z,8.82
2022-09-15T15:55:41.931Z,8.70
2022-09-15T15:58:13.237Z,10.85
2022-09-15T16:00:46.625Z,10.02
2022-09-15T16:03:14.920Z,7.78
2022-09-15T16:05:44.759Z,7.80
2022-09-15T16:08:19.674Z,6.32
2022-09-15T16:10:49.376Z,4.15
2022-09-15T16:13:18.400Z,3.10
2022-09-15T16:15:45.820Z,2.72
2022-09-15T16:18:13.334Z,2.17
2022-09-15T16:20:41.286Z,2.33
2022-09-15T16:23:13.623Z,2.25
2022-09-15T16:26:00.125Z,1.80
2022-09-15T16:28:28.723Z,1.45
2022-09-15T16:30:57.067Z,1.30
2022-09-15T16:33:25.000Z,1.75
2022-09-15T16:36:06.750Z,1.55
2022-09-15T16:38:35.381Z,1.30
2022-09-15T16:41:03.571Z,1.20
2022-09-15T16:43:30.831Z,1.33
2022-09-15T16:45:57.900Z,1.17
2022-09-15T16:48:25.048Z,1.13
2022-09-15T16:53:39.706Z,1.20
2022-09-15T16:56:10.221Z,1.40
2022-09-15T16:58:37.306Z,1.65
2022-09-15T17:01:04.854Z,1.40
2022-09-15T17:03:31.976Z,1.30
2022-09-15T17:06:02.259Z,1.65
2022-09-15T17:08:31.741Z,1.33
2022-09-15T17:11:00.748Z,1.48
2022-09-15T17:13:30.590Z,1.35
2022-09-15T17:15:58.855Z,1.42
2022-09-15T17:18:26.495Z,1.08
2022-09-15T17:20:53.453Z,1.92
2022-09-15T17:23:31.148Z,1.20
2022-09-15T17:26:01.138Z,1.52
2022-09-15T17:28:31.090Z,1.48
2022-09-15T17:31:06.310Z,1.25
2022-09-15T17:33:33.299Z,1.55
2022-09-15T17:36:00.581Z,2.50
2022-09-15T17:38:27.528Z,10.38
2022-09-15T17:40:57.740Z,16.52
2022-09-15T17:43:27.423Z,17.58
2022-09-15T17:45:54.791Z,15.00
2022-09-15T17:48:22.558Z,19.05
2022-09-15T17:50:50.332Z,14.82
2022-09-15T17:53:26.558Z,11.45
2022-09-15T17:55:55.451Z,7.95
2022-09-15T17:58:24.767Z,11.60
2022-09-15T18:00:52.465Z,11.57
2022-09-15T18:03:27.439Z,6.43
2022-09-15T18:05:56.391Z,4.63
2022-09-15T18:08:23.359Z,6.32
2022-09-15T18:10:50.249Z,4.55
2022-09-15T18:13:20.290Z,3.67
2022-09-15T18:15:48.991Z,3.67
2022-09-15T18:18:24.490Z,2.88
2022-09-15T18:20:53.304Z,3.45
2022-09-15T18:23:22.601Z,3.33
2022-09-15T18:25:50.544Z,2.92
2022-09-15T18:28:18.651Z,2.08
2022-09-15T18:30:48.047Z,2.10
2022-09-15T18:33:22.883Z,2.10
2022-09-15T18:35:51.958Z,2.17
2022-09-15T18:38:19.660Z,1.70
2022-09-15T18:40:49.056Z,2.00
2022-09-15T18:43:16.728Z,1.73
2022-09-15T18:45:44.058Z,1.92
2022-09-15T18:48:13.185Z,1.55
2022-09-15T18:50:41.341Z,1.88
2022-09-15T18:53:08.721Z,1.48
2022-09-15T18:55:36.071Z,1.80
2022-09-15T18:58:03.018Z,1.88
2022-09-15T19:00:30.051Z,2.22
2022-09-15T19:02:58.512Z,10.60
2022-09-15T19:05:26.814Z,12.20
2022-09-15T19:07:54.015Z,8.27
2022-09-15T19:10:21.231Z,11.52
2022-09-15T19:12:48.137Z,6.15
2022-09-15T19:15:15.654Z,3.42
2022-09-15T19:17:43.485Z,5.10
2022-09-15T19:20:13.601Z,17.58
2022-09-15T19:22:40.862Z,19.77
2022-09-15T19:25:09.273Z,8.98
2022-09-15T19:27:38.109Z,2.10
2022-09-15T19:30:06.511Z,5.20
2022-09-15T19:32:33.933Z,5.83
2022-09-15T19:35:00.971Z,1.87
2022-09-15T19:37:27.913Z,2.10
2022-09-15T19:39:54.991Z,2.30
2022-09-15T19:42:22.071Z,9.53
2022-09-15T19:44:49.523Z,3.57
2022-09-15T19:47:16.483Z,4.63
2022-09-15T19:49:43.384Z,2.73
2022-09-15T19:52:10.593Z,9.63
2022-09-15T19:54:37.476Z,8.63
2022-09-15T19:57:04.582Z,5.67
2022-09-15T19:59:32.117Z,10.50
2022-09-15T20:02:00.661Z,2.23
2022-09-15T20:04:28.522Z,4.97
2022-09-15T20:06:55.491Z,5.33
2022-09-15T20:09:22.870Z,7.13
2022-09-15T20:11:49.840Z,3.10
2022-09-15T20:14:17.844Z,6.55
2022-09-15T20:16:44.838Z,3.35
2022-09-15T20:19:11.862Z,3.90
2022-09-15T20:21:55.796Z,2.27
2022-09-15T20:24:23.746Z,4.57
2022-09-15T20:26:52.463Z,2.30
2022-09-15T20:29:19.902Z,2.97
2022-09-15T20:31:47.217Z,1.52
2022-09-15T20:34:14.470Z,4.10
2022-09-15T20:36:41.399Z,1.40
2022-09-15T20:39:12.869Z,1.40
2022-09-15T20:41:41.101Z,1.50
2022-09-15T20:44:11.235Z,3.53
2022-09-15T20:46:38.225Z,3.63
2022-09-15T20:49:05.825Z,2.22
2022-09-15T20:51:33.817Z,3.00
2022-09-15T20:54:03.393Z,1.40
2022-09-15T20:56:32.214Z,1.97
2022-09-15T20:59:00.137Z,3.47
2022-09-15T21:01:30.577Z,5.00
2022-09-15T21:03:57.698Z,2.80
2022-09-15T21:06:26.680Z,2.50
2022-09-15T21:08:55.603Z,1.97
2022-09-15T21:11:24.077Z,4.30
2022-09-15T21:13:51.188Z,3.50
2022-09-15T21:16:24.159Z,1.70
2022-09-15T21:18:51.787Z,2.37
2022-09-15T21:21:24.306Z,2.93
2022-09-15T21:23:56.514Z,4.10
2022-09-15T21:26:28.685Z,1.80
2022-09-15T21:28:56.402Z,3.40
2022-09-15T21:31:29.914Z,2.30
2022-09-15T21:33:57.875Z,2.00
2022-09-15T21:36:24.917Z,3.40
2022-09-15T21:38:54.277Z,1.80
2022-09-15T21:41:23.753Z,3.97
2022-09-15T21:43:55.683Z,3.93
2022-09-15T21:46:25.105Z,5.77
2022-09-15T21:48:52.118Z,3.90
2022-09-15T21:51:24.568Z,1.10
2022-09-15T21:53:53.415Z,5.63
2022-09-15T21:56:21.105Z,2.53
2022-09-15T21:58:48.721Z,1.63
2022-09-15T22:01:27.903Z,3.70
2022-09-15T22:04:04.675Z,1.30
2022-09-15T22:06:34.277Z,1.77
2022-09-15T22:09:06.880Z,4.93
2022-09-15T22:11:34.705Z,4.77
2022-09-15T22:14:03.199Z,1.50
2022-09-15T22:16:30.446Z,6.07
2022-09-15T22:18:59.822Z,3.07
2022-09-15T22:21:28.594Z,2.67
2022-09-15T22:23:57.377Z,2.10
2022-09-15T22:26:27.433Z,2.10
2022-09-15T22:28:55.168Z,3.30
2022-09-15T22:31:23.760Z,2.00
2022-09-15T22:33:51.390Z,2.47
2022-09-15T22:36:28.843Z,5.00
2022-09-15T22:39:03.417Z,3.10
2022-09-15T22:41:31.682Z,2.17
2022-09-15T22:43:58.913Z,1.60
2022-09-15T22:46:25.863Z,4.13
2022-09-15T22:48:52.934Z,1.87
2022-09-15T22:51:20.021Z,2.57
2022-09-15T22:53:47.166Z,2.57
2022-09-15T22:56:20.104Z,2.03
2022-09-15T22:58:49.307Z,1.60
2022-09-15T23:01:19.299Z,2.70
2022-09-15T23:03:50.659Z,2.87
2022-09-15T23:06:17.624Z,2.63
2022-09-15T23:08:44.713Z,1.30
2022-09-15T23:11:13.562Z,2.60
2022-09-15T23:13:41.515Z,2.93
2022-09-15T23:16:09.559Z,2.37
2022-09-15T23:18:36.638Z,2.47
2022-09-15T23:21:09.397Z,1.33
2022-09-15T23:23:38.385Z,2.30
2022-09-15T23:26:10.212Z,2.63
2022-09-15T23:28:39.118Z,2.30
2022-09-15T23:31:06.486Z,1.80
2022-09-15T23:33:33.671Z,2.20
2022-09-15T23:36:02.506Z,1.37
2022-09-15T23:38:30.194Z,1.30
2022-09-15T23:40:57.271Z,1.67
2022-09-15T23:43:24.148Z,1.40
2022-09-15T23:45:51.414Z,1.90
2022-09-15T23:48:18.473Z,1.40
2022-09-15T23:50:45.655Z,1.60
2022-09-15T23:53:12.511Z,1.43
2022-09-15T23:55:39.416Z,1.33
2022-09-15T23:58:06.543Z,1.23
